Time;durP1;ratioP1;P1;durP2;ratioP2;P2;SDS_P1;SDS_P2;PMS_P1;PMS_P2;Temp;Humidity;BMP_temperature;BMP_pressure;BME280_temperature;BME280_humidity;BME280_pressure;Samples;Min_cycle;Max_cycle;Signal;HPM_P1;HPM_P2
2024/04/23 00:01:54;;;;;;;4.40;2.60;;;;;;;-0.13;51.22;102396.44;5317859;26;20032;-75
2024/04/23 00:04:20;;;;;;;5.35;2.85;;;;;;;-0.04;51.29;102388.13;5298908;26;20005;-75
2024/04/23 00:06:56;;;;;;;4.93;2.95;;;;;;;-0.06;51.45;102382.06;5291425;26;20361;-76
2024/04/23 00:09:21;;;;;;;4.07;2.42;;;;;;;-0.08;51.05;102383.72;5289851;26;20023;-75
2024/04/23 00:11:47;;;;;;;4.10;2.65;;;;;;;-0.16;51.23;102379.22;5320604;26;20277;-76
2024/04/23 00:14:13;;;;;;;5.85;2.75;;;;;;;-0.21;51.53;102383.38;5314509;26;20005;-75
2024/04/23 00:16:38;;;;;;;4.50;2.25;;;;;;;-0.21;51.65;102373.09;5294960;26;20025;-75
2024/04/23 00:19:03;;;;;;;3.65;1.92;;;;;;;-0.25;51.51;102368.69;5287273;26;20021;-75
2024/04/23 00:21:29;;;;;;;5.43;2.88;;;;;;;-0.39;51.18;102367.44;5287518;26;20012;-75
2024/04/23 00:23:54;;;;;;;4.88;2.50;;;;;;;-0.33;51.51;102362.44;5289948;26;21394;-76
2024/04/23 00:26:20;;;;;;;5.93;2.63;;;;;;;-0.41;51.67;102366.50;5316978;26;20032;-76
2024/04/23 00:28:45;;;;;;;4.50;2.42;;;;;;;-0.48;51.95;102360.31;5288490;26;20397;-75
2024/04/23 00:31:11;;;;;;;8.43;2.83;;;;;;;-0.58;51.89;102364.28;5342232;26;20094;-75
2024/04/23 00:33:36;;;;;;;7.53;2.53;;;;;;;-0.61;52.33;102356.50;5291737;26;20426;-75
2024/04/23 00:36:01;;;;;;;3.72;1.77;;;;;;;-0.70;52.69;102363.94;5299340;26;20460;-75
2024/04/23 00:38:27;;;;;;;4.03;1.95;;;;;;;-0.65;52.39;102352.09;5289165;26;20480;-75
2024/04/23 00:40:52;;;;;;;4.45;1.63;;;;;;;-0.59;52.14;102352.28;5342324;26;20010;-75
2024/04/23 00:43:18;;;;;;;3.88;1.58;;;;;;;-0.75;51.92;102350.06;5291929;26;20777;-75
2024/04/23 00:45:47;;;;;;;3.55;1.83;;;;;;;-0.59;51.93;102347.16;5290778;26;20012;-75
2024/04/23 00:48:15;;;;;;;4.40;1.92;;;;;;;-0.57;51.88;102336.94;5300032;26;20024;-75
2024/04/23 00:50:42;;;;;;;4.72;1.60;;;;;;;-0.52;51.74;102334.50;5291318;26;20005;-75
2024/04/23 00:53:08;;;;;;;5.97;2.65;;;;;;;-0.56;51.87;102338.66;5289888;26;20095;-75
2024/04/23 00:55:35;;;;;;;3.92;2.15;;;;;;;-0.53;51.92;102345.56;5295918;26;20009;-74
2024/04/23 00:58:02;;;;;;;3.88;2.08;;;;;;;-0.52;51.76;102342.19;5284002;26;20005;-75
2024/04/23 01:00:29;;;;;;;5.05;2.00;;;;;;;-0.62;52.00;102344.47;5291829;26;20013;-75
2024/04/23 01:02:55;;;;;;;4.35;1.90;;;;;;;-0.60;52.14;102344.53;5332434;26;20020;-75
2024/04/23 01:05:20;;;;;;;3.85;1.75;;;;;;;-0.50;51.90;102340.50;5344146;26;23842;-75
2024/04/23 01:07:46;;;;;;;4.57;2.35;;;;;;;-0.51;51.81;102333.66;5286119;26;20005;-75
2024/04/23 01:10:12;;;;;;;4.03;1.88;;;;;;;-0.53;51.56;102333.59;5303222;26;20021;-75
2024/04/23 01:12:38;;;;;;;3.78;1.80;;;;;;;-0.65;51.55;102328.13;5271209;26;20052;-76
2024/04/23 01:15:04;;;;;;;2.72;1.60;;;;;;;-0.57;51.66;102331.78;5284257;26;20566;-76
2024/04/23 01:17:30;;;;;;;4.03;1.90;;;;;;;-0.65;51.07;102330.69;5298543;26;20004;-75
2024/04/23 01:19:59;;;;;;;5.90;1.92;;;;;;;-0.61;51.36;102325.69;5290795;26;20677;-75
2024/04/23 01:22:36;;;;;;;4.22;1.88;;;;;;;-0.62;51.09;102320.50;5290747;26;20009;-75
2024/04/23 01:25:19;;;;;;;5.90;2.28;;;;;;;-0.65;51.69;102328.97;5285554;26;20411;-75
2024/04/23 01:27:47;;;;;;;5.50;2.15;;;;;;;-0.60;51.69;102331.69;5290315;26;20010;-75
2024/04/23 01:30:12;;;;;;;6.75;2.20;;;;;;;-0.62;51.50;102323.91;5299492;26;20049;-75
2024/04/23 01:32:40;;;;;;;5.40;2.42;;;;;;;-0.68;51.55;102323.75;5311696;26;20013;-75
2024/04/23 01:35:08;;;;;;;6.35;1.90;;;;;;;-0.61;51.84;102330.81;5296672;26;20045;-75
2024/04/23 01:37:35;;;;;;;4.15;1.48;;;;;;;-0.60;51.67;102329.97;5301634;26;20019;-75
2024/04/23 01:40:02;;;;;;;4.05;2.13;;;;;;;-0.53;51.69;102333.59;5285396;26;20028;-75
2024/04/23 01:42:28;;;;;;;4.50;2.40;;;;;;;-0.56;51.61;102326.69;5293721;26;20081;-75
2024/04/23 01:44:55;;;;;;;3.60;1.48;;;;;;;-0.61;51.44;102325.69;5286055;26;20448;-75
2024/04/23 01:47:20;;;;;;;3.42;1.60;;;;;;;-0.71;51.57;102323.66;5292403;26;20484;-75
2024/04/23 01:49:47;;;;;;;7.07;3.15;;;;;;;-0.71;51.66;102317.66;5288020;26;20086;-75
2024/04/23 01:52:12;;;;;;;2.78;1.60;;;;;;;-0.81;51.87;102312.25;5293027;26;20021;-75
2024/04/23 01:54:38;;;;;;;3.45;1.90;;;;;;;-0.84;51.91;102314.72;5305823;26;20087;-75
2024/04/23 01:57:06;;;;;;;4.00;1.73;;;;;;;-0.77;51.64;102310.66;5282484;26;20005;-75
2024/04/23 01:59:32;;;;;;;4.10;2.28;;;;;;;-0.77;51.96;102305.53;5290027;26;20005;-75
2024/04/23 02:02:00;;;;;;;3.47;1.95;;;;;;;-0.85;51.80;102304.41;5304241;26;20134;-75
2024/04/23 02:04:26;;;;;;;6.05;1.95;;;;;;;-0.99;51.58;102304.00;5295102;26;20006;-75
2024/04/23 02:06:52;;;;;;;2.88;1.33;;;;;;;-1.02;51.48;102301.31;5282732;26;20084;-75
2024/04/23 02:09:18;;;;;;;6.95;2.00;;;;;;;-0.97;51.67;102303.19;5318890;26;20009;-75
2024/04/23 02:11:44;;;;;;;4.10;1.85;;;;;;;-0.88;51.79;102301.75;5302224;26;20023;-75
2024/04/23 02:14:09;;;;;;;4.70;1.80;;;;;;;-0.83;51.88;102297.63;5300510;26;20042;-76
2024/04/23 02:16:35;;;;;;;3.53;1.85;;;;;;;-0.88;51.59;102300.06;5294258;26;20040;-75
2024/04/23 02:19:00;;;;;;;3.97;1.50;;;;;;;-1.09;51.72;102295.06;5292477;26;20364;-75
2024/04/23 02:21:26;;;;;;;3.92;1.65;;;;;;;-1.03;52.02;102295.31;5347935;26;20085;-75
2024/04/23 02:23:51;;;;;;;5.53;2.00;;;;;;;-0.90;52.26;102298.28;5289422;26;20032;-75
2024/04/23 02:26:17;;;;;;;3.83;1.70;;;;;;;-0.96;51.84;102291.22;5300994;26;20490;-75
2024/04/23 02:28:42;;;;;;;4.07;2.08;;;;;;;-1.14;52.15;102293.22;5275651;26;20042;-75
2024/04/23 02:31:08;;;;;;;3.60;1.85;;;;;;;-1.22;52.48;102292.94;5287450;26;20009;-75
2024/04/23 02:33:33;;;;;;;4.05;1.88;;;;;;;-1.28;52.67;102288.50;5296732;26;20022;-76
2024/04/23 02:35:59;;;;;;;3.90;1.85;;;;;;;-1.27;52.46;102289.38;5306281;26;20028;-76
2024/04/23 02:38:24;;;;;;;5.82;2.33;;;;;;;-1.35;52.56;102285.69;5318015;26;20005;-75
2024/04/23 02:40:50;;;;;;;4.78;2.38;;;;;;;-1.45;53.05;102289.66;5299686;26;20009;-75
2024/04/23 02:43:15;;;;;;;5.65;1.60;;;;;;;-1.39;53.23;102285.59;5292469;26;20008;-75
2024/04/23 02:45:40;;;;;;;9.50;2.08;;;;;;;-1.24;53.28;102279.19;5295453;26;20088;-75
2024/04/23 02:48:07;;;;;;;8.25;2.42;;;;;;;-1.20;52.80;102269.09;5340917;26;21851;-75
2024/04/23 02:50:32;;;;;;;4.70;1.90;;;;;;;-1.30;52.87;102273.91;5297504;26;20005;-75
2024/04/23 02:52:58;;;;;;;4.85;2.45;;;;;;;-1.40;53.30;102272.72;5291337;26;20709;-75
2024/04/23 02:55:23;;;;;;;3.75;2.50;;;;;;;-1.22;53.29;102264.72;5298850;26;20020;-75
2024/04/23 02:57:49;;;;;;;4.55;2.17;;;;;;;-1.11;52.97;102265.06;5288435;26;20021;-75
2024/04/23 03:00:14;;;;;;;5.68;1.98;;;;;;;-1.20;53.05;102256.28;5298088;26;20089;-75
2024/04/23 03:02:59;;;;;;;3.15;1.38;;;;;;;-1.28;53.12;102251.72;5298058;26;20360;-75
2024/04/23 03:05:24;;;;;;;4.32;2.55;;;;;;;-1.36;53.84;102251.47;5302121;26;20005;-74
2024/04/23 03:07:50;;;;;;;6.47;2.30;;;;;;;-1.23;53.49;102250.19;5299834;26;20006;-74
2024/04/23 03:10:15;;;;;;;4.03;2.72;;;;;;;-1.22;53.48;102251.91;5268224;26;20026;-75
2024/04/23 03:12:40;;;;;;;3.13;1.42;;;;;;;-1.34;53.89;102257.53;5300224;26;20090;-75
2024/04/23 03:15:06;;;;;;;4.80;2.33;;;;;;;-1.34;53.83;102254.97;5346218;26;20020;-75
2024/04/23 03:17:32;;;;;;;3.83;2.03;;;;;;;-1.32;53.96;102255.88;5292750;26;20002;-75
2024/04/23 03:19:57;;;;;;;3.90;1.95;;;;;;;-1.31;53.93;102255.03;5291849;26;20024;-74
2024/04/23 03:22:22;;;;;;;3.95;2.10;;;;;;;-1.11;54.12;102244.53;5324552;26;20006;-75
2024/04/23 03:24:48;;;;;;;4.93;2.45;;;;;;;-0.98;53.68;102247.53;5352708;26;20009;-74
2024/04/23 03:27:13;;;;;;;4.40;2.13;;;;;;;-0.90;53.87;102239.22;5290780;26;20484;-74
2024/04/23 03:29:39;;;;;;;4.40;1.85;;;;;;;-0.72;53.75;102251.72;5296360;26;20009;-75
2024/04/23 03:32:05;;;;;;;2.50;2.13;;;;;;;-0.54;53.60;102248.81;5291503;26;20010;-74
2024/04/23 03:34:31;;;;;;;8.05;2.92;;;;;;;-0.52;53.26;102242.03;5295081;26;21134;-74
2024/04/23 03:36:57;;;;;;;4.00;2.22;;;;;;;-0.38;53.25;102235.56;5298630;26;20029;-74
2024/04/23 03:39:23;;;;;;;3.60;1.75;;;;;;;-0.30;53.00;102236.66;5331036;26;20016;-74
2024/04/23 03:41:59;;;;;;;6.18;2.90;;;;;;;-0.25;52.79;102223.94;5304126;26;20412;-74
2024/04/23 03:44:26;;;;;;;6.25;2.47;;;;;;;-0.16;52.54;102221.59;5323946;26;20002;-75
2024/04/23 03:46:52;;;;;;;5.75;2.70;;;;;;;-0.09;52.28;102220.91;5329802;26;20052;-74
2024/04/23 03:49:18;;;;;;;4.82;2.80;;;;;;;-0.10;52.11;102216.63;5297455;26;20041;-74
2024/04/23 03:51:43;;;;;;;3.92;2.58;;;;;;;-0.06;52.24;102220.97;5276382;26;20550;-74
2024/04/23 03:54:09;;;;;;;3.80;1.75;;;;;;;0.04;51.96;102228.13;5291011;26;20016;-74
2024/04/23 03:56:35;;;;;;;5.32;2.50;;;;;;;0.08;52.38;102221.38;5344608;26;20010;-74
2024/04/23 03:59:01;;;;;;;6.53;3.13;;;;;;;-0.01;52.16;102221.13;5288861;26;20411;-74
2024/04/23 04:01:26;;;;;;;3.15;2.28;;;;;;;-0.05;51.75;102225.31;5295989;26;20087;-74
2024/04/23 04:06:35;;;;;;;5.63;2.75;;;;;;;-0.11;51.80;102209.72;5307550;26;20090;-74
2024/04/23 04:09:01;;;;;;;7.10;2.30;;;;;;;-0.18;52.03;102202.69;5294959;26;20544;-74
2024/04/23 04:11:32;;;;;;;4.18;2.25;;;;;;;-0.10;51.93;102208.00;5294139;26;20041;-75
2024/04/23 04:14:01;;;;;;;5.70;2.63;;;;;;;-0.03;52.26;102212.50;5294277;26;20033;-74
2024/04/23 04:16:28;;;;;;;4.85;2.67;;;;;;;-0.09;51.72;102212.34;5294670;26;20006;-75
2024/04/23 04:18:54;;;;;;;5.80;2.10;;;;;;;-0.16;51.95;102209.59;5340999;26;20079;-74
2024/04/23 04:21:20;;;;;;;7.07;3.30;;;;;;;-0.26;52.15;102220.50;5347325;26;20484;-74
2024/04/23 04:23:45;;;;;;;4.68;2.45;;;;;;;-0.31;52.66;102211.78;5297466;26;20456;-75
2024/04/23 04:26:12;;;;;;;6.15;2.83;;;;;;;-0.33;52.50;102208.28;5291186;26;20009;-74
2024/04/23 04:28:43;;;;;;;4.93;2.85;;;;;;;-0.17;52.50;102209.56;5340293;26;20660;-74
2024/04/23 04:31:09;;;;;;;4.63;3.08;;;;;;;-0.05;52.36;102212.47;5289976;26;20540;-74
2024/04/23 04:33:36;;;;;;;4.00;2.55;;;;;;;-0.08;52.17;102209.81;5320350;26;20304;-75
2024/04/23 04:36:03;;;;;;;4.32;2.40;;;;;;;-0.04;52.09;102210.75;5291831;26;20479;-74
2024/04/23 04:38:28;;;;;;;6.05;2.70;;;;;;;0.19;51.98;102204.50;5290953;26;20009;-75
2024/04/23 04:40:54;;;;;;;5.90;2.85;;;;;;;0.31;52.23;102203.91;5319565;26;20006;-75
2024/04/23 04:43:19;;;;;;;5.63;2.20;;;;;;;0.42;51.70;102202.47;5324384;26;20005;-75
2024/04/23 04:45:45;;;;;;;5.15;2.17;;;;;;;0.50;51.50;102205.19;5290549;26;20118;-75
2024/04/23 04:48:10;;;;;;;4.10;2.65;;;;;;;0.64;50.97;102201.25;5288164;26;20367;-75
2024/04/23 04:50:36;;;;;;;7.28;2.85;;;;;;;0.54;50.57;102212.16;5290413;26;20017;-75
2024/04/23 04:53:01;;;;;;;14.57;3.17;;;;;;;0.58;50.24;102207.97;5290268;26;20020;-75
2024/04/23 04:55:30;;;;;;;4.18;2.70;;;;;;;0.66;50.63;102201.31;5346993;26;20013;-75
2024/04/23 04:57:55;;;;;;;6.53;2.53;;;;;;;0.72;50.29;102195.41;5289692;26;20021;-74
2024/04/23 05:00:21;;;;;;;4.57;2.65;;;;;;;0.76;50.52;102192.06;5303772;26;20009;-75
2024/04/23 05:02:46;;;;;;;3.67;2.45;;;;;;;0.86;49.89;102189.75;5327363;26;20807;-75
2024/04/23 05:05:12;;;;;;;4.72;3.40;;;;;;;0.91;49.49;102202.69;5292909;26;20166;-75
2024/04/23 05:07:37;;;;;;;6.22;3.00;;;;;;;0.94;48.93;102195.03;5316892;26;20016;-75
2024/04/23 05:10:03;;;;;;;4.97;2.63;;;;;;;1.31;49.71;102199.25;5301947;26;20020;-75
2024/04/23 05:12:29;;;;;;;5.00;2.55;;;;;;;1.58;48.48;102194.63;5289822;26;20006;-75
2024/04/23 05:14:54;;;;;;;5.78;3.13;;;;;;;2.35;47.47;102195.09;5294327;26;20667;-75
2024/04/23 05:17:20;;;;;;;7.20;3.95;;;;;;;3.50;45.85;102193.16;5336363;26;21188;-75
2024/04/23 05:19:45;;;;;;;6.55;2.50;;;;;;;4.29;41.83;102189.56;5319833;26;20014;-75
2024/04/23 05:22:11;;;;;;;6.32;2.78;;;;;;;4.64;40.73;102186.34;5285978;26;20094;-75
2024/04/23 05:24:36;;;;;;;4.57;2.35;;;;;;;4.80;40.50;102190.72;5286605;26;20013;-75
2024/04/23 05:27:02;;;;;;;4.32;2.50;;;;;;;4.96;39.79;102193.44;5345735;26;20306;-74
2024/04/23 05:29:28;;;;;;;4.78;2.13;;;;;;;6.85;38.42;102193.59;5288319;26;20021;-75
2024/04/23 05:34:37;;;;;;;6.40;2.70;;;;;;;9.68;30.77;102186.72;5290505;26;20630;-75
2024/04/23 05:37:03;;;;;;;4.60;2.25;;;;;;;9.69;30.04;102180.59;5289123;26;20383;-75
2024/04/23 05:39:29;;;;;;;4.15;1.83;;;;;;;10.64;29.64;102171.13;5292905;26;20353;-75
2024/04/23 05:41:54;;;;;;;3.67;2.10;;;;;;;10.83;28.46;102171.63;5296652;26;20008;-75
2024/04/23 05:44:21;;;;;;;5.47;3.08;;;;;;;11.35;28.38;102166.16;5289693;26;20108;-75
2024/04/23 05:46:46;;;;;;;9.40;3.63;;;;;;;11.26;27.61;102164.63;5295248;26;20014;-74
2024/04/23 05:49:49;;;;;;;7.75;3.92;;;;;;;11.79;27.56;102161.69;5352020;26;20084;-76
2024/04/23 05:53:11;;;;;;;6.00;4.20;;;;;;;12.14;26.24;102163.41;5299126;26;20018;-77
2024/04/23 05:55:55;;;;;;;9.67;3.93;;;;;;;12.03;27.14;102161.06;5296799;26;20354;-76
2024/04/23 05:58:21;;;;;;;9.32;3.38;;;;;;;12.41;25.92;102166.19;5292228;26;20009;-76
2024/04/23 06:00:46;;;;;;;16.25;4.05;;;;;;;10.72;27.91;102162.25;5298421;26;20539;-73
2024/04/23 06:03:12;;;;;;;7.85;4.22;;;;;;;11.35;27.75;102159.19;5307235;26;20016;-73
2024/04/23 06:05:37;;;;;;;18.67;3.22;;;;;;;13.25;25.62;102147.16;5299282;26;20045;-76
2024/04/23 06:08:03;;;;;;;10.23;3.80;;;;;;;13.18;24.55;102149.09;5302120;26;20017;-76
2024/04/23 06:10:28;;;;;;;4.97;3.05;;;;;;;12.77;25.06;102138.09;5296912;26;20020;-76
2024/04/23 06:12:54;;;;;;;6.28;2.85;;;;;;;12.90;25.55;102147.34;5296609;26;20021;-74
2024/04/23 06:15:19;;;;;;;4.75;2.58;;;;;;;13.08;25.25;102145.91;5293012;26;20048;-74
2024/04/23 06:17:45;;;;;;;4.85;2.63;;;;;;;12.41;25.95;102147.84;5291894;26;20009;-74
2024/04/23 06:20:10;;;;;;;5.38;2.60;;;;;;;11.75;26.58;102147.75;5297605;26;20012;-74
2024/04/23 06:22:38;;;;;;;8.52;2.88;;;;;;;12.73;25.94;102138.25;5303103;26;20009;-76
2024/04/23 06:25:05;;;;;;;3.45;2.35;;;;;;;12.18;27.21;102136.22;5278198;26;20014;-76
2024/04/23 06:27:31;;;;;;;3.65;2.13;;;;;;;13.00;25.33;102136.56;5293577;26;20075;-73
2024/04/23 06:30:05;;;;;;;3.92;2.35;;;;;;;13.56;24.99;102135.69;5296017;26;20013;-76
2024/04/23 06:32:31;;;;;;;5.05;2.50;;;;;;;12.55;26.43;102131.72;5350156;26;20017;-75
2024/04/23 06:34:56;;;;;;;3.28;2.33;;;;;;;12.47;26.38;102127.56;5304213;26;22278;-76
2024/04/23 06:37:22;;;;;;;5.55;3.45;;;;;;;12.23;26.95;102123.84;5302783;26;21181;-73
2024/04/23 06:39:47;;;;;;;5.70;2.72;;;;;;;12.87;25.93;102126.44;5326374;26;20005;-74
2024/04/23 06:42:14;;;;;;;6.60;2.92;;;;;;;10.71;27.89;102123.94;5297856;26;20005;-73
2024/04/23 06:44:40;;;;;;;6.72;3.42;;;;;;;12.35;26.46;102116.53;5291734;26;20028;-75
2024/04/23 06:47:05;;;;;;;5.50;2.85;;;;;;;13.29;24.97;102119.91;5297390;26;20037;-73
2024/04/23 06:49:31;;;;;;;5.90;2.03;;;;;;;10.19;29.51;102116.22;5274664;26;20012;-75
2024/04/23 06:51:56;;;;;;;5.35;3.15;;;;;;;12.21;26.73;102109.91;5298133;26;20460;-73
2024/04/23 06:54:22;;;;;;;4.10;1.95;;;;;;;12.66;25.76;102117.38;5293474;26;20388;-74
2024/04/23 06:56:51;;;;;;;3.22;1.80;;;;;;;12.27;26.77;102104.53;5327220;26;20013;-78
2024/04/23 06:59:16;;;;;;;8.23;1.73;;;;;;;13.94;25.16;102095.88;5320973;26;20032;-73
2024/04/23 07:01:42;;;;;;;4.10;2.35;;;;;;;12.87;26.05;102104.56;5300136;26;20020;-74
2024/04/23 07:04:08;;;;;;;3.22;1.98;;;;;;;12.47;26.20;102097.88;5296254;26;20475;-74
2024/04/23 07:06:36;;;;;;;6.82;2.55;;;;;;;13.56;24.88;102101.53;5294282;26;20075;-74
2024/04/23 07:09:02;;;;;;;4.85;2.00;;;;;;;14.81;24.22;102098.00;5272107;26;20009;-73
2024/04/23 07:11:27;;;;;;;4.35;2.60;;;;;;;14.64;23.79;102091.63;5326282;26;20563;-73
2024/04/23 07:13:53;;;;;;;3.08;2.42;;;;;;;15.51;23.24;102089.97;5297209;26;20365;-74
2024/04/23 07:16:18;;;;;;;4.55;2.20;;;;;;;16.47;22.30;102091.97;5295106;26;20009;-74
2024/04/23 07:18:43;;;;;;;3.80;2.10;;;;;;;18.00;21.14;102091.56;5303246;26;20476;-74
2024/04/23 07:21:09;;;;;;;3.58;2.53;;;;;;;17.76;19.83;102087.53;5296932;26;20795;-74
2024/04/23 07:23:35;;;;;;;6.93;2.03;;;;;;;18.33;19.44;102079.31;5303611;26;20002;-74
2024/04/23 07:26:01;;;;;;;2.92;2.00;;;;;;;17.15;21.47;102080.88;5293996;26;20023;-74
2024/04/23 07:28:28;;;;;;;3.05;2.20;;;;;;;16.34;21.23;102074.97;5350189;26;20155;-74
2024/04/23 07:30:53;;;;;;;4.82;2.45;;;;;;;16.01;21.85;102065.00;5297237;26;20024;-74
2024/04/23 07:33:19;;;;;;;5.35;2.55;;;;;;;15.26;21.42;102069.03;5296769;26;20010;-74
2024/04/23 07:35:46;;;;;;;4.32;2.38;;;;;;;14.64;22.52;102073.22;5310308;26;20016;-74
2024/04/23 07:38:13;;;;;;;4.18;2.38;;;;;;;16.38;22.01;102066.84;5291168;26;20000;-74
2024/04/23 07:40:46;;;;;;;3.83;1.92;;;;;;;16.82;20.74;102066.59;5354124;26;20016;-74
2024/04/23 07:43:14;;;;;;;6.45;1.88;;;;;;;16.17;20.77;102066.03;5301103;26;20436;-74
2024/04/23 07:45:40;;;;;;;3.20;2.10;;;;;;;16.57;20.61;102066.84;5354713;26;20661;-74
2024/04/23 07:48:06;;;;;;;6.63;2.20;;;;;;;16.38;20.82;102058.94;5304152;26;20017;-73
2024/04/23 07:50:32;;;;;;;3.33;1.88;;;;;;;16.78;20.18;102062.38;5294868;26;20057;-74
2024/04/23 07:52:57;;;;;;;3.72;1.90;;;;;;;15.10;21.14;102057.38;5294550;26;20361;-74
2024/04/23 07:55:23;;;;;;;2.63;1.42;;;;;;;14.90;20.72;102058.16;5292283;26;21282;-73
2024/04/23 07:57:51;;;;;;;1.33;0.65;;;;;;;13.75;21.14;102054.53;5294585;26;20041;-74
2024/04/23 08:00:18;;;;;;;1.67;0.90;;;;;;;13.90;21.13;102056.63;5300050;26;20013;-74
2024/04/23 08:02:44;;;;;;;1.85;0.82;;;;;;;13.40;21.53;102044.25;5307461;26;20329;-73
2024/04/23 08:05:10;;;;;;;4.25;1.08;;;;;;;12.49;21.95;102052.34;5295160;26;20020;-74
2024/04/23 08:07:36;;;;;;;4.40;1.38;;;;;;;13.41;22.09;102048.63;5294151;26;20019;-74
2024/04/23 08:10:02;;;;;;;1.88;1.10;;;;;;;12.35;23.39;102048.38;5295064;26;20120;-74
2024/04/23 08:12:27;;;;;;;2.13;0.95;;;;;;;10.85;23.89;102048.69;5290117;26;20041;-74
2024/04/23 08:14:53;;;;;;;2.13;0.80;;;;;;;10.96;24.49;102046.69;5301090;26;20347;-74
2024/04/23 08:17:19;;;;;;;2.25;1.00;;;;;;;10.03;25.35;102046.84;5295604;26;20022;-73
2024/04/23 08:19:45;;;;;;;4.95;0.90;;;;;;;10.90;24.44;102048.59;5298659;26;20147;-72
2024/04/23 08:22:10;;;;;;;1.45;0.65;;;;;;;12.73;22.02;102039.41;5292299;26;20441;-72
2024/04/23 08:24:35;;;;;;;3.22;0.73;;;;;;;12.16;22.11;102034.97;5280366;26;20060;-73
2024/04/23 08:27:01;;;;;;;1.50;0.60;;;;;;;11.37;23.04;102042.22;5294521;26;20376;-74
2024/04/23 08:29:26;;;;;;;5.30;0.77;;;;;;;12.22;22.13;102037.38;5294878;26;20101;-74
2024/04/23 08:31:52;;;;;;;1.63;0.82;;;;;;;10.08;24.47;102039.81;5293799;26;20696;-74
2024/04/23 08:34:17;;;;;;;2.63;0.80;;;;;;;10.72;23.68;102034.13;5297018;26;20009;-74
2024/04/23 08:36:43;;;;;;;2.75;1.15;;;;;;;11.00;24.09;102027.41;5292604;26;20080;-73
2024/04/23 08:39:08;;;;;;;1.73;0.70;;;;;;;10.69;24.54;102027.22;5296577;26;20017;-74
2024/04/23 08:41:39;;;;;;;2.50;0.82;;;;;;;11.55;24.00;102029.56;5301733;26;20012;-73
2024/04/23 08:44:09;;;;;;;2.85;1.10;;;;;;;11.79;23.19;102028.94;5295083;26;20076;-74
2024/04/23 08:46:36;;;;;;;1.58;0.90;;;;;;;12.31;23.36;102025.78;5294812;26;20392;-74
2024/04/23 08:49:05;;;;;;;2.10;0.70;;;;;;;12.63;22.63;102020.44;5302225;26;20768;-74
2024/04/23 08:51:32;;;;;;;1.77;0.75;;;;;;;11.66;24.21;102014.44;5291361;26;20016;-73
2024/04/23 08:53:59;;;;;;;1.92;1.08;;;;;;;11.85;23.99;102018.31;5326207;26;20024;-74
2024/04/23 08:56:29;;;;;;;3.05;1.05;;;;;;;9.44;25.45;102009.63;5323866;26;20002;-74
2024/04/23 08:58:55;;;;;;;2.05;0.95;;;;;;;8.76;26.24;102008.03;5318071;26;20009;-74
2024/04/23 09:01:29;;;;;;;2.80;1.08;;;;;;;9.95;24.79;102004.38;5303625;26;20020;-76
2024/04/23 09:03:55;;;;;;;2.85;1.27;;;;;;;11.02;24.61;101994.22;5296059;26;20086;-74
2024/04/23 09:06:22;;;;;;;7.80;1.52;;;;;;;12.87;22.63;101990.00;5295258;26;20018;-73
2024/04/23 09:08:48;;;;;;;1.80;0.80;;;;;;;13.04;21.70;101978.94;5303873;26;20016;-73
2024/04/23 09:11:14;;;;;;;1.75;1.13;;;;;;;12.96;22.89;101975.72;5301338;26;20017;-75
2024/04/23 09:13:40;;;;;;;2.38;0.77;;;;;;;13.55;22.78;101979.84;5308630;26;20023;-73
2024/04/23 09:16:06;;;;;;;1.75;0.70;;;;;;;13.69;22.65;101963.63;5350993;26;20016;-74
2024/04/23 09:18:31;;;;;;;2.33;1.00;;;;;;;13.86;21.61;101977.03;5296263;26;20713;-74
2024/04/23 09:20:57;;;;;;;2.00;0.70;;;;;;;14.00;21.44;101968.63;5302617;26;20015;-75
2024/04/23 09:23:27;;;;;;;1.77;0.88;;;;;;;12.93;21.85;101967.94;5298719;26;20457;-74
2024/04/23 09:25:55;;;;;;;1.58;0.77;;;;;;;11.57;23.48;101968.41;5290863;26;20088;-73
2024/04/23 09:28:21;;;;;;;2.58;1.27;;;;;;;11.48;23.29;101959.94;5299597;26;20487;-73
2024/04/23 09:30:48;;;;;;;5.78;0.68;;;;;;;10.25;25.18;101963.69;5307990;26;20013;-74
2024/04/23 09:33:13;;;;;;;2.97;0.80;;;;;;;10.31;24.79;101960.09;5297121;26;20004;-74
2024/04/23 09:35:39;;;;;;;2.42;0.77;;;;;;;10.00;24.76;101950.28;5298537;26;20019;-73
2024/04/23 09:38:05;;;;;;;1.88;0.77;;;;;;;10.62;25.54;101952.44;5294904;26;20024;-74
2024/04/23 09:40:38;;;;;;;4.80;1.02;;;;;;;10.67;24.67;101944.47;5329222;26;20759;-74
2024/04/23 09:43:04;;;;;;;3.00;0.98;;;;;;;10.67;24.76;101944.47;5347426;26;20017;-74
2024/04/23 09:45:31;;;;;;;1.65;0.65;;;;;;;10.87;24.12;101942.28;5303573;26;20013;-74
2024/04/23 09:47:56;;;;;;;1.33;0.55;;;;;;;10.58;24.22;101935.94;5296146;26;20021;-74
2024/04/23 09:50:31;;;;;;;1.25;0.68;;;;;;;11.10;23.72;101933.84;5297180;26;20016;-74
2024/04/23 09:53:04;;;;;;;2.53;0.85;;;;;;;12.81;23.64;101931.63;5303399;26;21985;-74
2024/04/23 09:55:30;;;;;;;1.15;0.50;;;;;;;12.58;22.70;101929.69;5300419;26;20040;-74
2024/04/23 09:57:55;;;;;;;1.10;0.45;;;;;;;11.68;22.69;101920.97;5309046;26;20006;-74
2024/04/23 10:00:21;;;;;;;2.55;1.20;;;;;;;9.62;25.47;101930.97;5301619;26;20010;-73
2024/04/23 10:02:54;;;;;;;3.10;0.98;;;;;;;9.76;26.27;101928.09;5351430;26;20026;-74
2024/04/23 10:05:27;;;;;;;2.30;1.02;;;;;;;9.44;26.07;101926.13;5274987;26;20005;-74
2024/04/23 10:08:08;;;;;;;1.48;0.88;;;;;;;8.30;27.84;101928.75;5347103;26;20002;-73
2024/04/23 10:10:43;;;;;;;3.50;0.93;;;;;;;7.99;28.35;101925.69;5306708;26;20471;-74
2024/04/23 10:13:13;;;;;;;3.53;1.10;;;;;;;8.48;27.78;101909.41;5301420;26;20024;-74
2024/04/23 10:15:55;;;;;;;1.73;1.02;;;;;;;8.09;28.26;101919.50;5294395;26;20045;-76
2024/04/23 10:18:34;;;;;;;1.35;0.73;;;;;;;8.52;28.03;101908.47;5319241;26;20014;-76
2024/04/23 10:21:01;;;;;;;4.13;0.70;;;;;;;8.43;27.98;101910.34;5328228;26;20100;-74
2024/04/23 10:23:28;;;;;;;2.97;1.10;;;;;;;8.91;27.41;101900.94;5355312;26;20015;-73
2024/04/23 10:25:55;;;;;;;2.47;1.00;;;;;;;8.56;27.23;101901.44;5352280;26;20092;-76
2024/04/23 10:28:21;;;;;;;2.35;1.00;;;;;;;8.77;26.54;101897.69;5294498;26;20020;-73
2024/04/23 10:30:48;;;;;;;2.05;0.80;;;;;;;9.18;26.13;101891.75;5299207;26;20404;-76
2024/04/23 10:33:16;;;;;;;5.72;1.02;;;;;;;9.08;26.51;101891.97;5347336;26;21077;-76
2024/04/23 10:35:44;;;;;;;7.40;1.10;;;;;;;9.85;24.98;101880.09;5296970;26;20024;-73
2024/04/23 10:38:15;;;;;;;1.27;0.68;;;;;;;9.73;25.19;101876.81;5299717;26;20009;-76
2024/04/23 10:40:43;;;;;;;3.30;0.70;;;;;;;10.66;25.03;101875.66;5298561;26;20021;-74
2024/04/23 10:43:09;;;;;;;4.57;0.90;;;;;;;10.18;26.04;101868.91;5349564;26;20022;-74
2024/04/23 10:45:35;;;;;;;2.53;1.35;;;;;;;10.62;24.68;101859.16;5299055;26;20013;-76
2024/04/23 10:48:07;;;;;;;2.70;1.20;;;;;;;10.67;24.42;101856.44;5306018;26;20082;-74
2024/04/23 10:50:33;;;;;;;1.20;0.70;;;;;;;11.44;23.68;101850.09;5351124;26;21029;-73
2024/04/23 10:53:01;;;;;;;2.40;0.88;;;;;;;11.66;23.97;101849.44;5295488;26;20001;-76
2024/04/23 10:55:27;;;;;;;4.45;1.25;;;;;;;11.46;23.32;101850.00;5324364;26;20084;-75
2024/04/23 10:57:54;;;;;;;1.40;0.80;;;;;;;11.68;23.85;101839.78;5319698;26;20472;-75
2024/04/23 11:00:36;;;;;;;1.88;0.80;;;;;;;10.96;24.16;101833.94;5269176;26;20704;-74
2024/04/23 11:03:15;;;;;;;1.33;0.80;;;;;;;10.08;25.18;101836.06;5317169;26;20009;-74
2024/04/23 11:05:49;;;;;;;4.97;1.30;;;;;;;10.24;25.59;101826.13;5311100;26;20001;-75
2024/04/23 11:08:27;;;;;;;1.67;0.43;;;;;;;9.33;25.50;101829.78;5293267;26;20021;-75
2024/04/23 11:11:13;;;;;;;2.30;0.95;;;;;;;9.02;26.68;101819.06;5287703;26;20017;-74
2024/04/23 11:13:40;;;;;;;1.75;1.00;;;;;;;10.74;26.25;101815.31;5288882;26;20013;-74
2024/04/23 11:16:17;;;;;;;1.27;0.55;;;;;;;11.73;24.42;101816.97;5298018;26;20780;-75
2024/04/23 11:18:49;;;;;;;1.83;0.85;;;;;;;11.04;24.77;101813.69;5316684;26;20017;-75
2024/04/23 11:21:24;;;;;;;3.80;0.90;;;;;;;10.47;25.01;101807.25;5292781;26;20024;-75
2024/04/23 11:23:50;;;;;;;1.38;0.70;;;;;;;10.29;25.26;101811.19;5285592;26;20020;-74
2024/04/23 11:26:16;;;;;;;2.08;1.00;;;;;;;9.24;26.83;101815.16;5297928;26;20486;-75
2024/04/23 11:28:42;;;;;;;3.95;1.20;;;;;;;8.59;26.52;101809.38;5287105;26;20052;-75
2024/04/23 11:31:08;;;;;;;2.58;0.95;;;;;;;8.49;27.05;101806.03;5284626;26;22308;-74
2024/04/23 11:33:37;;;;;;;1.38;0.88;;;;;;;10.50;26.71;101807.16;5280582;26;20086;-74